sensor_id;sensor_type;location;lat;lon;timestamp;P1;durP1;ratioP1;P2;durP2;ratioP2
3415;SDS011;1721;51.238;9.562;2023-07-20T00:01:21;7.00;;;3.27;;
3415;SDS011;1721;51.238;9.562;2023-07-20T00:03:47;5.87;;;2.90;;
3415;SDS011;1721;51.238;9.562;2023-07-20T00:06:19;6.35;;;2.63;;
3415;SDS011;1721;51.238;9.562;2023-07-20T00:08:50;8.37;;;3.30;;
3415;SDS011;1721;51.238;9.562;2023-07-20T00:11:16;10.77;;;3.17;;
3415;SDS011;1721;51.238;9.562;2023-07-20T00:13:41;5.60;;;2.37;;
3415;SDS011;1721;51.238;9.562;2023-07-20T00:16:07;6.90;;;2.90;;
3415;SDS011;1721;51.238;9.562;2023-07-20T00:18:32;7.30;;;2.37;;
3415;SDS011;1721;51.238;9.562;2023-07-20T00:20:58;10.60;;;3.17;;
3415;SDS011;1721;51.238;9.562;2023-07-20T00:23:25;7.40;;;3.10;;
3415;SDS011;1721;51.238;9.562;2023-07-20T00:25:51;5.78;;;2.53;;
3415;SDS011;1721;51.238;9.562;2023-07-20T00:28:17;6.37;;;2.50;;
3415;SDS011;1721;51.238;9.562;2023-07-20T00:30:42;5.03;;;2.27;;
3415;SDS011;1721;51.238;9.562;2023-07-20T00:33:11;5.63;;;2.40;;
3415;SDS011;1721;51.238;9.562;2023-07-20T00:35:37;6.13;;;2.33;;
3415;SDS011;1721;51.238;9.562;2023-07-20T00:38:04;8.37;;;2.97;;
3415;SDS011;1721;51.238;9.562;2023-07-20T00:40:36;7.03;;;2.50;;
3415;SDS011;1721;51.238;9.562;2023-07-20T00:43:02;5.93;;;2.47;;
3415;SDS011;1721;51.238;9.562;2023-07-20T00:45:28;32.40;;;4.83;;
3415;SDS011;1721;51.238;9.562;2023-07-20T00:47:54;4.80;;;2.47;;
3415;SDS011;1721;51.238;9.562;2023-07-20T00:50:20;8.13;;;2.50;;
3415;SDS011;1721;51.238;9.562;2023-07-20T00:52:46;9.73;;;3.37;;
3415;SDS011;1721;51.238;9.562;2023-07-20T00:55:12;7.37;;;3.33;;
3415;SDS011;1721;51.238;9.562;2023-07-20T00:57:38;6.43;;;2.80;;
3415;SDS011;1721;51.238;9.562;2023-07-20T01:00:03;5.70;;;2.80;;
3415;SDS011;1721;51.238;9.562;2023-07-20T01:02:31;10.60;;;3.17;;
3415;SDS011;1721;51.238;9.562;2023-07-20T01:04:57;7.67;;;2.50;;
3415;SDS011;1721;51.238;9.562;2023-07-20T01:10:01;6.28;;;2.55;;
3415;SDS011;1721;51.238;9.562;2023-07-20T01:12:43;5.40;;;2.80;;
3415;SDS011;1721;51.238;9.562;2023-07-20T01:15:13;5.47;;;2.20;;
3415;SDS011;1721;51.238;9.562;2023-07-20T01:17:38;6.70;;;2.67;;
3415;SDS011;1721;51.238;9.562;2023-07-20T01:20:05;7.60;;;2.63;;
3415;SDS011;1721;51.238;9.562;2023-07-20T01:22:45;7.50;;;3.42;;
3415;SDS011;1721;51.238;9.562;2023-07-20T01:33:57;6.88;;;3.08;;
3415;SDS011;1721;51.238;9.562;2023-07-20T01:36:26;9.83;;;2.67;;
3415;SDS011;1721;51.238;9.562;2023-07-20T01:38:54;5.40;;;2.70;;
3415;SDS011;1721;51.238;9.562;2023-07-20T01:41:21;6.25;;;2.88;;
3415;SDS011;1721;51.238;9.562;2023-07-20T01:43:46;6.30;;;2.90;;
3415;SDS011;1721;51.238;9.562;2023-07-20T01:46:12;9.53;;;3.60;;
3415;SDS011;1721;51.238;9.562;2023-07-20T01:48:37;7.40;;;2.80;;
3415;SDS011;1721;51.238;9.562;2023-07-20T01:51:03;5.30;;;2.73;;
3415;SDS011;1721;51.238;9.562;2023-07-20T01:53:28;6.40;;;3.00;;
3415;SDS011;1721;51.238;9.562;2023-07-20T01:55:54;8.13;;;2.70;;
3415;SDS011;1721;51.238;9.562;2023-07-20T01:58:21;7.10;;;2.53;;
3415;SDS011;1721;51.238;9.562;2023-07-20T02:00:46;5.60;;;2.60;;
3415;SDS011;1721;51.238;9.562;2023-07-20T02:03:12;11.93;;;2.73;;
3415;SDS011;1721;51.238;9.562;2023-07-20T02:05:38;9.43;;;3.27;;
3415;SDS011;1721;51.238;9.562;2023-07-20T02:08:03;6.63;;;2.43;;
3415;SDS011;1721;51.238;9.562;2023-07-20T02:10:29;5.72;;;3.08;;
3415;SDS011;1721;51.238;9.562;2023-07-20T02:12:55;8.20;;;3.00;;
3415;SDS011;1721;51.238;9.562;2023-07-20T02:15:21;6.10;;;2.50;;
3415;SDS011;1721;51.238;9.562;2023-07-20T02:17:47;5.03;;;2.67;;
3415;SDS011;1721;51.238;9.562;2023-07-20T02:20:13;5.27;;;2.60;;
3415;SDS011;1721;51.238;9.562;2023-07-20T02:22:39;7.60;;;3.13;;
3415;SDS011;1721;51.238;9.562;2023-07-20T02:25:05;7.20;;;2.63;;
3415;SDS011;1721;51.238;9.562;2023-07-20T02:27:32;6.97;;;2.83;;
3415;SDS011;1721;51.238;9.562;2023-07-20T02:29:58;6.00;;;2.67;;
3415;SDS011;1721;51.238;9.562;2023-07-20T02:32:24;10.30;;;2.90;;
3415;SDS011;1721;51.238;9.562;2023-07-20T02:34:49;8.30;;;3.33;;
3415;SDS011;1721;51.238;9.562;2023-07-20T02:37:16;7.07;;;3.43;;
3415;SDS011;1721;51.238;9.562;2023-07-20T02:39:41;6.15;;;3.15;;
3415;SDS011;1721;51.238;9.562;2023-07-20T02:42:07;6.80;;;3.13;;
3415;SDS011;1721;51.238;9.562;2023-07-20T02:44:32;10.50;;;3.00;;
3415;SDS011;1721;51.238;9.562;2023-07-20T02:46:58;8.40;;;3.60;;
3415;SDS011;1721;51.238;9.562;2023-07-20T02:49:23;9.97;;;4.07;;
3415;SDS011;1721;51.238;9.562;2023-07-20T02:51:49;10.00;;;3.57;;
3415;SDS011;1721;51.238;9.562;2023-07-20T02:54:15;8.27;;;3.63;;
3415;SDS011;1721;51.238;9.562;2023-07-20T02:56:40;11.53;;;3.97;;
3415;SDS011;1721;51.238;9.562;2023-07-20T02:59:06;9.30;;;3.87;;
3415;SDS011;1721;51.238;9.562;2023-07-20T03:01:31;8.30;;;3.30;;
3415;SDS011;1721;51.238;9.562;2023-07-20T03:03:57;8.80;;;3.63;;
3415;SDS011;1721;51.238;9.562;2023-07-20T03:06:23;7.63;;;4.00;;
3415;SDS011;1721;51.238;9.562;2023-07-20T03:08:48;7.50;;;4.03;;
3415;SDS011;1721;51.238;9.562;2023-07-20T03:11:19;10.53;;;3.70;;
3415;SDS011;1721;51.238;9.562;2023-07-20T03:13:46;9.83;;;4.30;;
3415;SDS011;1721;51.238;9.562;2023-07-20T03:16:12;12.18;;;3.67;;
3415;SDS011;1721;51.238;9.562;2023-07-20T03:18:40;9.70;;;3.95;;
3415;SDS011;1721;51.238;9.562;2023-07-20T03:21:07;7.43;;;3.93;;
3415;SDS011;1721;51.238;9.562;2023-07-20T03:23:33;8.93;;;3.97;;
3415;SDS011;1721;51.238;9.562;2023-07-20T03:26:00;8.83;;;3.90;;
3415;SDS011;1721;51.238;9.562;2023-07-20T03:28:25;8.27;;;3.93;;
3415;SDS011;1721;51.238;9.562;2023-07-20T03:30:54;11.73;;;3.93;;
3415;SDS011;1721;51.238;9.562;2023-07-20T03:33:24;7.85;;;3.70;;
3415;SDS011;1721;51.238;9.562;2023-07-20T03:35:51;10.50;;;3.97;;
3415;SDS011;1721;51.238;9.562;2023-07-20T03:38:17;8.57;;;3.83;;
3415;SDS011;1721;51.238;9.562;2023-07-20T03:40:50;6.20;;;3.60;;
3415;SDS011;1721;51.238;9.562;2023-07-20T03:43:16;9.17;;;4.27;;
3415;SDS011;1721;51.238;9.562;2023-07-20T03:45:41;9.47;;;3.87;;
3415;SDS011;1721;51.238;9.562;2023-07-20T03:48:07;7.40;;;3.80;;
3415;SDS011;1721;51.238;9.562;2023-07-20T03:50:33;6.20;;;3.30;;
3415;SDS011;1721;51.238;9.562;2023-07-20T03:52:58;7.50;;;3.90;;
3415;SDS011;1721;51.238;9.562;2023-07-20T03:55:24;7.00;;;3.50;;
3415;SDS011;1721;51.238;9.562;2023-07-20T03:57:49;8.07;;;3.90;;
3415;SDS011;1721;51.238;9.562;2023-07-20T04:00:16;9.65;;;3.60;;
3415;SDS011;1721;51.238;9.562;2023-07-20T04:02:42;9.00;;;4.40;;
3415;SDS011;1721;51.238;9.562;2023-07-20T04:05:08;9.10;;;4.10;;
3415;SDS011;1721;51.238;9.562;2023-07-20T04:07:33;12.53;;;3.83;;
3415;SDS011;1721;51.238;9.562;2023-07-20T04:09:59;7.80;;;3.80;;
3415;SDS011;1721;51.238;9.562;2023-07-20T04:12:24;8.57;;;3.90;;
3415;SDS011;1721;51.238;9.562;2023-07-20T04:14:50;8.50;;;4.40;;
3415;SDS011;1721;51.238;9.562;2023-07-20T04:17:16;11.10;;;4.47;;
3415;SDS011;1721;51.238;9.562;2023-07-20T04:19:42;10.23;;;4.80;;
3415;SDS011;1721;51.238;9.562;2023-07-20T04:22:08;11.73;;;4.20;;
3415;SDS011;1721;51.238;9.562;2023-07-20T04:24:33;8.27;;;4.03;;
3415;SDS011;1721;51.238;9.562;2023-07-20T04:26:59;8.37;;;4.10;;
3415;SDS011;1721;51.238;9.562;2023-07-20T04:29:24;8.63;;;4.67;;
3415;SDS011;1721;51.238;9.562;2023-07-20T04:31:50;11.10;;;4.40;;
3415;SDS011;1721;51.238;9.562;2023-07-20T04:34:16;8.87;;;4.50;;
3415;SDS011;1721;51.238;9.562;2023-07-20T04:36:41;12.90;;;3.93;;
3415;SDS011;1721;51.238;9.562;2023-07-20T04:39:07;11.37;;;4.27;;
3415;SDS011;1721;51.238;9.562;2023-07-20T04:41:33;11.33;;;4.00;;
3415;SDS011;1721;51.238;9.562;2023-07-20T04:43:59;12.27;;;4.10;;
3415;SDS011;1721;51.238;9.562;2023-07-20T04:46:24;10.10;;;4.40;;
3415;SDS011;1721;51.238;9.562;2023-07-20T04:48:50;8.60;;;3.80;;
3415;SDS011;1721;51.238;9.562;2023-07-20T04:51:15;12.70;;;4.37;;
3415;SDS011;1721;51.238;9.562;2023-07-20T04:53:45;9.03;;;3.60;;
3415;SDS011;1721;51.238;9.562;2023-07-20T04:56:14;8.90;;;4.20;;
3415;SDS011;1721;51.238;9.562;2023-07-20T04:58:39;7.67;;;3.90;;
3415;SDS011;1721;51.238;9.562;2023-07-20T05:01:05;10.40;;;3.80;;
3415;SDS011;1721;51.238;9.562;2023-07-20T05:03:30;5.93;;;3.00;;
3415;SDS011;1721;51.238;9.562;2023-07-20T05:05:56;6.90;;;3.10;;
3415;SDS011;1721;51.238;9.562;2023-07-20T05:08:22;7.70;;;3.70;;
3415;SDS011;1721;51.238;9.562;2023-07-20T05:10:48;7.53;;;3.70;;
3415;SDS011;1721;51.238;9.562;2023-07-20T05:13:13;7.47;;;3.80;;
3415;SDS011;1721;51.238;9.562;2023-07-20T05:15:39;7.43;;;3.47;;
3415;SDS011;1721;51.238;9.562;2023-07-20T05:18:05;8.63;;;3.50;;
3415;SDS011;1721;51.238;9.562;2023-07-20T05:20:31;6.47;;;3.27;;
3415;SDS011;1721;51.238;9.562;2023-07-20T05:22:58;9.33;;;3.63;;
3415;SDS011;1721;51.238;9.562;2023-07-20T05:25:24;7.77;;;3.60;;
3415;SDS011;1721;51.238;9.562;2023-07-20T05:27:51;7.07;;;3.50;;
3415;SDS011;1721;51.238;9.562;2023-07-20T05:30:17;7.07;;;3.93;;
3415;SDS011;1721;51.238;9.562;2023-07-20T05:32:43;7.30;;;4.00;;
3415;SDS011;1721;51.238;9.562;2023-07-20T05:35:12;8.80;;;4.40;;
3415;SDS011;1721;51.238;9.562;2023-07-20T05:37:39;6.97;;;3.70;;
3415;SDS011;1721;51.238;9.562;2023-07-20T05:40:05;9.43;;;3.80;;
3415;SDS011;1721;51.238;9.562;2023-07-20T05:42:32;9.80;;;4.50;;
3415;SDS011;1721;51.238;9.562;2023-07-20T05:44:58;11.97;;;4.27;;
3415;SDS011;1721;51.238;9.562;2023-07-20T05:47:23;9.67;;;4.83;;
3415;SDS011;1721;51.238;9.562;2023-07-20T05:49:49;9.50;;;5.07;;
3415;SDS011;1721;51.238;9.562;2023-07-20T05:52:14;11.87;;;4.73;;
3415;SDS011;1721;51.238;9.562;2023-07-20T05:54:40;10.33;;;4.30;;
3415;SDS011;1721;51.238;9.562;2023-07-20T05:57:06;8.70;;;4.50;;
3415;SDS011;1721;51.238;9.562;2023-07-20T05:59:31;8.93;;;4.63;;
3415;SDS011;1721;51.238;9.562;2023-07-20T06:01:57;11.30;;;5.10;;
3415;SDS011;1721;51.238;9.562;2023-07-20T06:04:22;14.67;;;5.27;;
3415;SDS011;1721;51.238;9.562;2023-07-20T06:06:48;8.40;;;4.87;;
3415;SDS011;1721;51.238;9.562;2023-07-20T06:09:14;8.47;;;4.40;;
3415;SDS011;1721;51.238;9.562;2023-07-20T06:11:40;9.57;;;4.87;;
3415;SDS011;1721;51.238;9.562;2023-07-20T06:14:06;10.27;;;4.80;;
3415;SDS011;1721;51.238;9.562;2023-07-20T06:16:31;13.00;;;5.53;;
3415;SDS011;1721;51.238;9.562;2023-07-20T06:18:58;16.93;;;5.80;;
3415;SDS011;1721;51.238;9.562;2023-07-20T06:21:25;15.70;;;5.23;;
3415;SDS011;1721;51.238;9.562;2023-07-20T06:23:50;15.33;;;5.07;;
3415;SDS011;1721;51.238;9.562;2023-07-20T06:26:16;10.40;;;5.37;;
3415;SDS011;1721;51.238;9.562;2023-07-20T06:28:42;11.97;;;5.20;;
3415;SDS011;1721;51.238;9.562;2023-07-20T06:31:07;11.80;;;4.57;;
3415;SDS011;1721;51.238;9.562;2023-07-20T06:33:33;12.50;;;6.03;;
3415;SDS011;1721;51.238;9.562;2023-07-20T06:35:59;9.20;;;5.33;;
3415;SDS011;1721;51.238;9.562;2023-07-20T06:38:25;9.80;;;5.23;;
3415;SDS011;1721;51.238;9.562;2023-07-20T06:40:51;12.07;;;5.00;;
3415;SDS011;1721;51.238;9.562;2023-07-20T06:43:17;13.73;;;5.63;;
3415;SDS011;1721;51.238;9.562;2023-07-20T06:45:42;12.93;;;4.87;;
3415;SDS011;1721;51.238;9.562;2023-07-20T06:48:08;9.80;;;4.80;;
3415;SDS011;1721;51.238;9.562;2023-07-20T06:50:34;9.03;;;4.60;;
3415;SDS011;1721;51.238;9.562;2023-07-20T06:52:59;9.20;;;4.67;;
3415;SDS011;1721;51.238;9.562;2023-07-20T06:55:26;9.17;;;4.60;;
3415;SDS011;1721;51.238;9.562;2023-07-20T06:57:51;15.10;;;5.20;;
3415;SDS011;1721;51.238;9.562;2023-07-20T07:00:17;10.60;;;4.00;;
3415;SDS011;1721;51.238;9.562;2023-07-20T07:02:43;11.90;;;4.70;;
3415;SDS011;1721;51.238;9.562;2023-07-20T07:05:08;8.77;;;4.77;;
3415;SDS011;1721;51.238;9.562;2023-07-20T07:07:34;11.43;;;3.90;;
3415;SDS011;1721;51.238;9.562;2023-07-20T07:10:00;10.47;;;5.20;;
3415;SDS011;1721;51.238;9.562;2023-07-20T07:12:26;10.80;;;5.03;;
3415;SDS011;1721;51.238;9.562;2023-07-20T07:14:51;13.30;;;4.37;;
3415;SDS011;1721;51.238;9.562;2023-07-20T07:17:18;7.90;;;4.93;;
3415;SDS011;1721;51.238;9.562;2023-07-20T07:19:44;13.00;;;5.30;;
3415;SDS011;1721;51.238;9.562;2023-07-20T07:22:10;15.13;;;5.07;;
3415;SDS011;1721;51.238;9.562;2023-07-20T07:24:36;8.97;;;4.93;;
3415;SDS011;1721;51.238;9.562;2023-07-20T07:27:02;10.10;;;5.27;;
3415;SDS011;1721;51.238;9.562;2023-07-20T07:29:28;10.60;;;5.40;;
3415;SDS011;1721;51.238;9.562;2023-07-20T07:31:54;10.37;;;5.40;;
3415;SDS011;1721;51.238;9.562;2023-07-20T07:34:20;14.03;;;6.10;;
3415;SDS011;1721;51.238;9.562;2023-07-20T07:36:45;15.00;;;4.93;;
3415;SDS011;1721;51.238;9.562;2023-07-20T07:39:12;9.87;;;5.47;;
3415;SDS011;1721;51.238;9.562;2023-07-20T07:41:37;9.43;;;4.90;;
3415;SDS011;1721;51.238;9.562;2023-07-20T07:44:03;10.80;;;5.00;;
3415;SDS011;1721;51.238;9.562;2023-07-20T07:46:29;12.00;;;5.10;;
3415;SDS011;1721;51.238;9.562;2023-07-20T07:48:54;19.10;;;5.30;;
3415;SDS011;1721;51.238;9.562;2023-07-20T07:51:20;13.03;;;5.83;;
3415;SDS011;1721;51.238;9.562;2023-07-20T07:53:46;10.10;;;4.70;;
3415;SDS011;1721;51.238;9.562;2023-07-20T07:56:11;9.20;;;4.50;;
3415;SDS011;1721;51.238;9.562;2023-07-20T07:58:37;14.20;;;5.17;;
3415;SDS011;1721;51.238;9.562;2023-07-20T08:01:03;11.10;;;5.13;;
3415;SDS011;1721;51.238;9.562;2023-07-20T08:03:28;10.40;;;4.90;;
3415;SDS011;1721;51.238;9.562;2023-07-20T08:05:54;14.70;;;6.50;;
3415;SDS011;1721;51.238;9.562;2023-07-20T08:08:20;10.33;;;5.27;;
3415;SDS011;1721;51.238;9.562;2023-07-20T08:10:46;9.93;;;4.40;;
3415;SDS011;1721;51.238;9.562;2023-07-20T08:13:12;8.40;;;3.97;;
3415;SDS011;1721;51.238;9.562;2023-07-20T08:15:38;17.53;;;4.80;;
3415;SDS011;1721;51.238;9.562;2023-07-20T08:18:04;9.00;;;3.40;;
3415;SDS011;1721;51.238;9.562;2023-07-20T08:20:30;6.60;;;3.10;;
3415;SDS011;1721;51.238;9.562;2023-07-20T08:22:57;5.27;;;2.30;;
3415;SDS011;1721;51.238;9.562;2023-07-20T08:25:24;7.47;;;2.60;;
3415;SDS011;1721;51.238;9.562;2023-07-20T08:27:50;5.20;;;2.40;;
3415;SDS011;1721;51.238;9.562;2023-07-20T08:30:16;4.90;;;2.50;;
3415;SDS011;1721;51.238;9.562;2023-07-20T08:32:41;6.47;;;2.33;;
3415;SDS011;1721;51.238;9.562;2023-07-20T08:35:07;6.27;;;2.10;;
3415;SDS011;1721;51.238;9.562;2023-07-20T08:37:33;4.83;;;1.90;;
3415;SDS011;1721;51.238;9.562;2023-07-20T08:39:58;8.47;;;2.10;;
3415;SDS011;1721;51.238;9.562;2023-07-20T08:42:24;5.03;;;2.20;;
3415;SDS011;1721;51.238;9.562;2023-07-20T08:44:50;6.27;;;2.33;;
3415;SDS011;1721;51.238;9.562;2023-07-20T08:47:17;4.90;;;1.60;;
3415;SDS011;1721;51.238;9.562;2023-07-20T08:49:46;8.63;;;2.27;;
3415;SDS011;1721;51.238;9.562;2023-07-20T08:52:13;6.80;;;2.33;;
3415;SDS011;1721;51.238;9.562;2023-07-20T08:54:39;4.40;;;1.63;;
3415;SDS011;1721;51.238;9.562;2023-07-20T08:57:05;5.23;;;2.30;;
3415;SDS011;1721;51.238;9.562;2023-07-20T08:59:32;5.57;;;2.63;;
3415;SDS011;1721;51.238;9.562;2023-07-20T09:02:01;6.17;;;2.30;;
3415;SDS011;1721;51.238;9.562;2023-07-20T09:04:29;4.50;;;2.03;;
3415;SDS011;1721;51.238;9.562;2023-07-20T09:06:55;6.63;;;2.63;;
3415;SDS011;1721;51.238;9.562;2023-07-20T09:09:22;9.43;;;2.60;;
3415;SDS011;1721;51.238;9.562;2023-07-20T09:11:47;6.40;;;2.67;;
3415;SDS011;1721;51.238;9.562;2023-07-20T09:14:14;5.70;;;2.80;;
3415;SDS011;1721;51.238;9.562;2023-07-20T09:16:50;7.20;;;2.97;;
3415;SDS011;1721;51.238;9.562;2023-07-20T09:19:17;6.37;;;2.63;;
3415;SDS011;1721;51.238;9.562;2023-07-20T09:21:44;10.17;;;3.10;;
3415;SDS011;1721;51.238;9.562;2023-07-20T09:24:12;7.57;;;2.73;;
3415;SDS011;1721;51.238;9.562;2023-07-20T09:26:41;6.50;;;3.17;;
3415;SDS011;1721;51.238;9.562;2023-07-20T09:29:08;8.57;;;3.03;;
3415;SDS011;1721;51.238;9.562;2023-07-20T09:31:37;6.90;;;2.57;;
3415;SDS011;1721;51.238;9.562;2023-07-20T09:34:03;6.40;;;2.97;;
3415;SDS011;1721;51.238;9.562;2023-07-20T09:36:31;5.33;;;2.80;;
3415;SDS011;1721;51.238;9.562;2023-07-20T09:39:00;5.70;;;2.03;;
3415;SDS011;1721;51.238;9.562;2023-07-20T09:41:25;6.40;;;2.70;;
3415;SDS011;1721;51.238;9.562;2023-07-20T09:43:51;6.67;;;2.57;;
3415;SDS011;1721;51.238;9.562;2023-07-20T09:46:18;5.47;;;2.57;;
3415;SDS011;1721;51.238;9.562;2023-07-20T09:48:54;5.20;;;2.23;;
3415;SDS011;1721;51.238;9.562;2023-07-20T09:51:21;8.50;;;3.37;;
3415;SDS011;1721;51.238;9.562;2023-07-20T09:53:48;4.90;;;2.50;;
3415;SDS011;1721;51.238;9.562;2023-07-20T09:56:14;6.87;;;2.97;;
3415;SDS011;1721;51.238;9.562;2023-07-20T09:58:43;7.60;;;3.07;;
3415;SDS011;1721;51.238;9.562;2023-07-20T10:01:10;6.43;;;2.83;;
3415;SDS011;1721;51.238;9.562;2023-07-20T10:03:39;6.47;;;3.20;;
3415;SDS011;1721;51.238;9.562;2023-07-20T10:06:08;6.20;;;3.00;;
3415;SDS011;1721;51.238;9.562;2023-07-20T10:08:41;6.60;;;3.17;;
3415;SDS011;1721;51.238;9.562;2023-07-20T10:11:08;5.40;;;2.00;;
3415;SDS011;1721;51.238;9.562;2023-07-20T10:13:37;4.40;;;2.03;;
3415;SDS011;1721;51.238;9.562;2023-07-20T10:16:07;7.93;;;2.70;;
3415;SDS011;1721;51.238;9.562;2023-07-20T10:18:39;6.97;;;3.00;;
3415;SDS011;1721;51.238;9.562;2023-07-20T10:21:13;6.30;;;2.90;;
3415;SDS011;1721;51.238;9.562;2023-07-20T10:23:41;6.60;;;2.43;;
3415;SDS011;1721;51.238;9.562;2023-07-20T10:26:07;5.07;;;2.57;;
3415;SDS011;1721;51.238;9.562;2023-07-20T10:28:34;6.03;;;2.50;;
3415;SDS011;1721;51.238;9.562;2023-07-20T10:31:01;5.90;;;2.90;;
3415;SDS011;1721;51.238;9.562;2023-07-20T10:33:27;4.30;;;2.10;;
3415;SDS011;1721;51.238;9.562;2023-07-20T10:35:56;4.90;;;2.17;;
3415;SDS011;1721;51.238;9.562;2023-07-20T10:38:38;4.70;;;1.93;;
3415;SDS011;1721;51.238;9.562;2023-07-20T10:41:03;6.73;;;2.20;;
3415;SDS011;1721;51.238;9.562;2023-07-20T10:43:29;7.23;;;1.90;;
3415;SDS011;1721;51.238;9.562;2023-07-20T10:45:55;5.13;;;2.20;;
3415;SDS011;1721;51.238;9.562;2023-07-20T10:48:23;5.10;;;2.23;;
3415;SDS011;1721;51.238;9.562;2023-07-20T10:51:08;4.67;;;1.70;;
3415;SDS011;1721;51.238;9.562;2023-07-20T10:53:36;5.00;;;1.60;;
3415;SDS011;1721;51.238;9.562;2023-07-20T10:56:08;3.90;;;1.50;;
3415;SDS011;1721;51.238;9.562;2023-07-20T10:58:38;3.87;;;1.37;;
3415;SDS011;1721;51.238;9.562;2023-07-20T11:01:05;3.10;;;1.00;;
3415;SDS011;1721;51.238;9.562;2023-07-20T11:03:37;6.03;;;1.13;;
3415;SDS011;1721;51.238;9.562;2023-07-20T11:06:29;3.40;;;1.10;;
3415;SDS011;1721;51.238;9.562;2023-07-20T11:09:03;3.20;;;0.80;;
3415;SDS011;1721;51.238;9.562;2023-07-20T11:11:36;3.00;;;0.80;;
3415;SDS011;1721;51.238;9.562;2023-07-20T11:14:04;3.17;;;0.80;;
3415;SDS011;1721;51.238;9.562;2023-07-20T11:16:34;3.30;;;0.77;;
3415;SDS011;1721;51.238;9.562;2023-07-20T11:19:04;4.80;;;0.80;;
3415;SDS011;1721;51.238;9.562;2023-07-20T11:21:35;4.90;;;1.33;;
3415;SDS011;1721;51.238;9.562;2023-07-20T11:24:06;3.10;;;0.80;;
3415;SDS011;1721;51.238;9.562;2023-07-20T11:26:44;3.40;;;0.80;;
3415;SDS011;1721;51.238;9.562;2023-07-20T11:29:12;2.90;;;0.70;;
3415;SDS011;1721;51.238;9.562;2023-07-20T11:31:39;3.83;;;0.90;;
3415;SDS011;1721;51.238;9.562;2023-07-20T11:34:06;4.20;;;0.90;;
3415;SDS011;1721;51.238;9.562;2023-07-20T11:36:39;5.53;;;0.97;;
3415;SDS011;1721;51.238;9.562;2023-07-20T11:39:13;3.20;;;0.80;;
3415;SDS011;1721;51.238;9.562;2023-07-20T11:41:46;3.43;;;0.90;;
3415;SDS011;1721;51.238;9.562;2023-07-20T11:44:13;3.80;;;0.93;;
3415;SDS011;1721;51.238;9.562;2023-07-20T11:46:43;3.87;;;0.77;;
3415;SDS011;1721;51.238;9.562;2023-07-20T11:49:09;4.00;;;0.70;;
3415;SDS011;1721;51.238;9.562;2023-07-20T11:51:36;3.40;;;0.70;;
3415;SDS011;1721;51.238;9.562;2023-07-20T11:54:03;3.00;;;0.70;;
3415;SDS011;1721;51.238;9.562;2023-07-20T11:56:31;2.60;;;0.60;;
3415;SDS011;1721;51.238;9.562;2023-07-20T11:59:00;2.80;;;0.60;;
3415;SDS011;1721;51.238;9.562;2023-07-20T12:01:27;3.10;;;0.80;;
3415;SDS011;1721;51.238;9.562;2023-07-20T12:04:00;2.97;;;0.70;;
3415;SDS011;1721;51.238;9.562;2023-07-20T12:06:28;2.80;;;0.70;;
3415;SDS011;1721;51.238;9.562;2023-07-20T12:08:55;3.60;;;0.80;;
3415;SDS011;1721;51.238;9.562;2023-07-20T12:14:00;3.20;;;0.80;;
3415;SDS011;1721;51.238;9.562;2023-07-20T12:16:26;2.90;;;0.70;;
3415;SDS011;1721;51.238;9.562;2023-07-20T12:19:05;3.70;;;0.77;;
3415;SDS011;1721;51.238;9.562;2023-07-20T12:21:34;2.97;;;0.60;;
3415;SDS011;1721;51.238;9.562;2023-07-20T12:24:01;3.10;;;0.67;;
3415;SDS011;1721;51.238;9.562;2023-07-20T12:26:28;3.10;;;0.80;;
3415;SDS011;1721;51.238;9.562;2023-07-20T12:28:55;2.80;;;0.60;;
3415;SDS011;1721;51.238;9.562;2023-07-20T12:31:20;3.10;;;0.70;;
3415;SDS011;1721;51.238;9.562;2023-07-20T12:33:47;3.27;;;0.80;;
3415;SDS011;1721;51.238;9.562;2023-07-20T12:36:13;3.73;;;0.90;;
3415;SDS011;1721;51.238;9.562;2023-07-20T12:38:39;5.97;;;1.00;;
3415;SDS011;1721;51.238;9.562;2023-07-20T12:41:06;3.17;;;0.60;;
3415;SDS011;1721;51.238;9.562;2023-07-20T12:43:32;2.80;;;0.70;;
3415;SDS011;1721;51.238;9.562;2023-07-20T12:45:58;2.80;;;0.60;;
3415;SDS011;1721;51.238;9.562;2023-07-20T12:48:24;3.67;;;0.90;;
3415;SDS011;1721;51.238;9.562;2023-07-20T12:50:50;3.40;;;1.00;;
3415;SDS011;1721;51.238;9.562;2023-07-20T12:53:16;3.33;;;0.80;;
3415;SDS011;1721;51.238;9.562;2023-07-20T12:55:41;3.17;;;0.70;;
3415;SDS011;1721;51.238;9.562;2023-07-20T12:58:07;2.90;;;0.60;;
3415;SDS011;1721;51.238;9.562;2023-07-20T13:00:33;3.00;;;0.60;;
3415;SDS011;1721;51.238;9.562;2023-07-20T13:02:59;3.53;;;0.90;;
3415;SDS011;1721;51.238;9.562;2023-07-20T13:05:25;4.77;;;1.10;;
3415;SDS011;1721;51.238;9.562;2023-07-20T13:07:51;2.90;;;0.70;;
3415;SDS011;1721;51.238;9.562;2023-07-20T13:10:16;3.03;;;0.70;;
3415;SDS011;1721;51.238;9.562;2023-07-20T13:12:43;3.10;;;0.70;;
3415;SDS011;1721;51.238;9.562;2023-07-20T13:15:09;2.90;;;0.60;;
3415;SDS011;1721;51.238;9.562;2023-07-20T13:17:36;5.33;;;0.93;;
3415;SDS011;1721;51.238;9.562;2023-07-20T13:20:03;3.20;;;0.90;;
3415;SDS011;1721;51.238;9.562;2023-07-20T13:22:34;3.10;;;0.77;;
3415;SDS011;1721;51.238;9.562;2023-07-20T13:25:01;3.10;;;0.70;;
3415;SDS011;1721;51.238;9.562;2023-07-20T13:27:27;3.33;;;0.70;;
3415;SDS011;1721;51.238;9.562;2023-07-20T13:29:53;3.00;;;0.70;;
3415;SDS011;1721;51.238;9.562;2023-07-20T13:32:18;3.33;;;0.60;;
3415;SDS011;1721;51.238;9.562;2023-07-20T13:34:44;2.73;;;0.60;;
3415;SDS011;1721;51.238;9.562;2023-07-20T13:37:10;3.17;;;0.80;;
3415;SDS011;1721;51.238;9.562;2023-07-20T13:39:36;3.90;;;0.80;;
3415;SDS011;1721;51.238;9.562;2023-07-20T13:42:02;3.20;;;0.80;;
3415;SDS011;1721;51.238;9.562;2023-07-20T13:44:30;2.90;;;0.60;;
3415;SDS011;1721;51.238;9.562;2023-07-20T13:46:56;3.73;;;0.80;;
3415;SDS011;1721;51.238;9.562;2023-07-20T13:49:22;3.33;;;0.80;;
3415;SDS011;1721;51.238;9.562;2023-07-20T13:51:48;3.00;;;0.60;;
3415;SDS011;1721;51.238;9.562;2023-07-20T13:54:13;3.40;;;0.70;;
3415;SDS011;1721;51.238;9.562;2023-07-20T13:56:39;4.07;;;0.70;;
3415;SDS011;1721;51.238;9.562;2023-07-20T13:59:05;10.03;;;0.83;;
3415;SDS011;1721;51.238;9.562;2023-07-20T14:01:30;3.20;;;0.70;;
3415;SDS011;1721;51.238;9.562;2023-07-20T14:03:58;3.00;;;0.60;;
3415;SDS011;1721;51.238;9.562;2023-07-20T14:06:23;4.27;;;0.80;;
3415;SDS011;1721;51.238;9.562;2023-07-20T14:08:49;3.10;;;0.70;;
3415;SDS011;1721;51.238;9.562;2023-07-20T14:11:15;7.00;;;0.87;;
3415;SDS011;1721;51.238;9.562;2023-07-20T14:13:41;3.30;;;0.70;;
3415;SDS011;1721;51.238;9.562;2023-07-20T14:16:07;3.07;;;0.70;;
3415;SDS011;1721;51.238;9.562;2023-07-20T14:18:33;3.87;;;0.80;;
3415;SDS011;1721;51.238;9.562;2023-07-20T14:20:58;3.30;;;0.77;;
3415;SDS011;1721;51.238;9.562;2023-07-20T14:23:24;3.27;;;0.67;;
3415;SDS011;1721;51.238;9.562;2023-07-20T14:25:50;3.50;;;0.90;;
3415;SDS011;1721;51.238;9.562;2023-07-20T14:28:15;3.53;;;0.80;;
3415;SDS011;1721;51.238;9.562;2023-07-20T14:30:41;3.60;;;0.70;;
3415;SDS011;1721;51.238;9.562;2023-07-20T14:33:07;3.83;;;0.70;;
3415;SDS011;1721;51.238;9.562;2023-07-20T14:35:33;2.90;;;0.70;;
3415;SDS011;1721;51.238;9.562;2023-07-20T14:37:59;3.00;;;0.70;;
3415;SDS011;1721;51.238;9.562;2023-07-20T14:40:25;3.20;;;0.70;;
3415;SDS011;1721;51.238;9.562;2023-07-20T14:42:51;3.40;;;0.70;;
3415;SDS011;1721;51.238;9.562;2023-07-20T14:45:17;3.10;;;0.67;;
3415;SDS011;1721;51.238;9.562;2023-07-20T14:47:43;2.80;;;0.60;;
3415;SDS011;1721;51.238;9.562;2023-07-20T14:50:08;3.37;;;0.70;;
3415;SDS011;1721;51.238;9.562;2023-07-20T14:52:34;4.90;;;1.20;;
3415;SDS011;1721;51.238;9.562;2023-07-20T14:55:00;4.30;;;0.60;;
3415;SDS011;1721;51.238;9.562;2023-07-20T14:57:26;4.03;;;0.70;;
3415;SDS011;1721;51.238;9.562;2023-07-20T14:59:51;3.10;;;0.70;;
3415;SDS011;1721;51.238;9.562;2023-07-20T15:02:17;3.00;;;0.70;;
3415;SDS011;1721;51.238;9.562;2023-07-20T15:04:47;3.60;;;0.80;;
3415;SDS011;1721;51.238;9.562;2023-07-20T15:07:15;3.93;;;0.70;;
3415;SDS011;1721;51.238;9.562;2023-07-20T15:09:41;3.50;;;0.90;;
3415;SDS011;1721;51.238;9.562;2023-07-20T15:12:07;3.60;;;1.03;;
3415;SDS011;1721;51.238;9.562;2023-07-20T15:14:33;4.07;;;1.00;;
3415;SDS011;1721;51.238;9.562;2023-07-20T15:16:58;3.73;;;0.80;;
3415;SDS011;1721;51.238;9.562;2023-07-20T15:19:24;7.47;;;1.80;;
3415;SDS011;1721;51.238;9.562;2023-07-20T15:21:49;3.00;;;0.70;;
3415;SDS011;1721;51.238;9.562;2023-07-20T15:24:15;2.93;;;0.70;;